sensor_id;sensor_type;location;lat;lon;timestamp;temperature;humidity
20839;DHT22;10580;51.092;6.828;2023-08-07T00:00:57;12.90;1.00
20839;DHT22;10580;51.092;6.828;2023-08-07T00:03:23;12.90;1.00
20839;DHT22;10580;51.092;6.828;2023-08-07T00:05:48;12.90;1.00
20839;DHT22;10580;51.092;6.828;2023-08-07T00:08:14;12.90;1.00
20839;DHT22;10580;51.092;6.828;2023-08-07T00:10:40;12.90;1.00
20839;DHT22;10580;51.092;6.828;2023-08-07T00:13:05;12.90;1.00
20839;DHT22;10580;51.092;6.828;2023-08-07T00:15:31;12.90;1.00
20839;DHT22;10580;51.092;6.828;2023-08-07T00:17:58;12.90;1.00
20839;DHT22;10580;51.092;6.828;2023-08-07T00:20:24;12.90;1.00
20839;DHT22;10580;51.092;6.828;2023-08-07T00:22:50;12.90;1.00
20839;DHT22;10580;51.092;6.828;2023-08-07T00:25:15;12.90;1.00
20839;DHT22;10580;51.092;6.828;2023-08-07T00:27:41;12.80;2.00
20839;DHT22;10580;51.092;6.828;2023-08-07T00:30:07;12.80;7.60
20839;DHT22;10580;51.092;6.828;2023-08-07T00:32:32;12.80;12.10
20839;DHT22;10580;51.092;6.828;2023-08-07T00:34:58;12.80;15.60
20839;DHT22;10580;51.092;6.828;2023-08-07T00:37:23;12.80;17.60
20839;DHT22;10580;51.092;6.828;2023-08-07T00:39:49;12.70;18.80
20839;DHT22;10580;51.092;6.828;2023-08-07T00:42:14;12.80;20.40
20839;DHT22;10580;51.092;6.828;2023-08-07T00:44:40;12.80;23.10
20839;DHT22;10580;51.092;6.828;2023-08-07T00:47:06;12.80;21.80
20839;DHT22;10580;51.092;6.828;2023-08-07T00:49:32;12.80;16.20
20839;DHT22;10580;51.092;6.828;2023-08-07T00:51:58;12.70;9.60
20839;DHT22;10580;51.092;6.828;2023-08-07T00:54:25;12.80;3.80
20839;DHT22;10580;51.092;6.828;2023-08-07T00:56:51;12.80;5.10
20839;DHT22;10580;51.092;6.828;2023-08-07T00:59:18;12.80;11.40
20839;DHT22;10580;51.092;6.828;2023-08-07T01:01:46;12.70;20.80
20839;DHT22;10580;51.092;6.828;2023-08-07T01:04:15;12.70;27.10
20839;DHT22;10580;51.092;6.828;2023-08-07T01:06:41;12.70;36.20
20839;DHT22;10580;51.092;6.828;2023-08-07T01:09:06;12.60;40.60
20839;DHT22;10580;51.092;6.828;2023-08-07T01:11:57;12.60;45.70
20839;DHT22;10580;51.092;6.828;2023-08-07T01:14:37;12.60;48.40
20839;DHT22;10580;51.092;6.828;2023-08-07T01:17:15;12.60;49.60
20839;DHT22;10580;51.092;6.828;2023-08-07T01:19:41;12.60;55.10
20839;DHT22;10580;51.092;6.828;2023-08-07T01:22:17;12.60;57.00
20839;DHT22;10580;51.092;6.828;2023-08-07T01:24:45;12.60;57.40
20839;DHT22;10580;51.092;6.828;2023-08-07T01:35:15;12.50;56.80
20839;DHT22;10580;51.092;6.828;2023-08-07T01:37:42;12.50;57.70
20839;DHT22;10580;51.092;6.828;2023-08-07T01:40:09;12.50;58.10
20839;DHT22;10580;51.092;6.828;2023-08-07T01:42:36;12.50;58.40
20839;DHT22;10580;51.092;6.828;2023-08-07T01:45:02;12.50;56.40
20839;DHT22;10580;51.092;6.828;2023-08-07T01:47:27;12.40;55.30
20839;DHT22;10580;51.092;6.828;2023-08-07T01:49:53;12.50;55.40
20839;DHT22;10580;51.092;6.828;2023-08-07T01:52:19;12.40;53.60
20839;DHT22;10580;51.092;6.828;2023-08-07T01:54:45;12.40;52.30
20839;DHT22;10580;51.092;6.828;2023-08-07T01:57:11;12.40;52.50
20839;DHT22;10580;51.092;6.828;2023-08-07T01:59:37;12.40;53.30
20839;DHT22;10580;51.092;6.828;2023-08-07T02:02:02;12.50;54.70
20839;DHT22;10580;51.092;6.828;2023-08-07T02:04:28;12.40;54.60
20839;DHT22;10580;51.092;6.828;2023-08-07T02:06:54;12.50;56.10
20839;DHT22;10580;51.092;6.828;2023-08-07T02:09:19;12.40;55.10
20839;DHT22;10580;51.092;6.828;2023-08-07T02:11:46;12.40;54.60
20839;DHT22;10580;51.092;6.828;2023-08-07T02:14:11;12.50;55.90
20839;DHT22;10580;51.092;6.828;2023-08-07T02:16:37;12.40;55.20
20839;DHT22;10580;51.092;6.828;2023-08-07T02:19:02;12.40;55.00
20839;DHT22;10580;51.092;6.828;2023-08-07T02:21:28;12.40;54.20
20839;DHT22;10580;51.092;6.828;2023-08-07T02:23:53;12.40;54.50
20839;DHT22;10580;51.092;6.828;2023-08-07T02:26:19;12.40;54.40
20839;DHT22;10580;51.092;6.828;2023-08-07T02:28:44;12.40;54.70
20839;DHT22;10580;51.092;6.828;2023-08-07T02:31:10;12.40;54.10
20839;DHT22;10580;51.092;6.828;2023-08-07T02:33:35;12.40;54.30
20839;DHT22;10580;51.092;6.828;2023-08-07T02:36:01;12.40;53.70
20839;DHT22;10580;51.092;6.828;2023-08-07T02:38:27;12.40;53.90
20839;DHT22;10580;51.092;6.828;2023-08-07T02:40:52;12.40;54.60
20839;DHT22;10580;51.092;6.828;2023-08-07T02:43:18;12.40;54.50
20839;DHT22;10580;51.092;6.828;2023-08-07T02:45:43;12.40;54.10
20839;DHT22;10580;51.092;6.828;2023-08-07T02:48:09;12.40;54.10
20839;DHT22;10580;51.092;6.828;2023-08-07T02:50:35;12.40;54.70
20839;DHT22;10580;51.092;6.828;2023-08-07T02:53:01;12.40;53.80
20839;DHT22;10580;51.092;6.828;2023-08-07T02:55:27;12.40;53.30
20839;DHT22;10580;51.092;6.828;2023-08-07T02:57:53;12.40;53.90
20839;DHT22;10580;51.092;6.828;2023-08-07T03:00:18;12.40;54.10
20839;DHT22;10580;51.092;6.828;2023-08-07T03:02:44;12.40;54.40
20839;DHT22;10580;51.092;6.828;2023-08-07T03:05:10;12.40;53.30
20839;DHT22;10580;51.092;6.828;2023-08-07T03:07:36;12.40;53.60
20839;DHT22;10580;51.092;6.828;2023-08-07T03:10:01;12.40;52.20
20839;DHT22;10580;51.092;6.828;2023-08-07T03:12:27;12.40;52.10
20839;DHT22;10580;51.092;6.828;2023-08-07T03:14:52;12.40;51.80
20839;DHT22;10580;51.092;6.828;2023-08-07T03:17:18;12.40;51.80
20839;DHT22;10580;51.092;6.828;2023-08-07T03:19:43;12.40;51.60
20839;DHT22;10580;51.092;6.828;2023-08-07T03:22:17;12.30;50.90
20839;DHT22;10580;51.092;6.828;2023-08-07T03:24:46;12.30;50.30
20839;DHT22;10580;51.092;6.828;2023-08-07T03:27:13;12.30;49.50
20839;DHT22;10580;51.092;6.828;2023-08-07T03:29:38;12.30;46.10
20839;DHT22;10580;51.092;6.828;2023-08-07T03:32:04;12.30;40.00
20839;DHT22;10580;51.092;6.828;2023-08-07T03:34:30;12.30;38.00
20839;DHT22;10580;51.092;6.828;2023-08-07T03:36:55;12.30;37.60
20839;DHT22;10580;51.092;6.828;2023-08-07T03:39:21;12.30;35.90
20839;DHT22;10580;51.092;6.828;2023-08-07T03:41:46;12.30;37.20
20839;DHT22;10580;51.092;6.828;2023-08-07T03:44:12;12.30;33.70
20839;DHT22;10580;51.092;6.828;2023-08-07T03:46:37;12.30;32.10
20839;DHT22;10580;51.092;6.828;2023-08-07T03:49:03;12.30;34.20
20839;DHT22;10580;51.092;6.828;2023-08-07T03:51:28;12.30;31.50
20839;DHT22;10580;51.092;6.828;2023-08-07T03:53:55;12.30;30.50
20839;DHT22;10580;51.092;6.828;2023-08-07T03:56:21;12.30;29.20
20839;DHT22;10580;51.092;6.828;2023-08-07T03:58:46;12.30;28.10
20839;DHT22;10580;51.092;6.828;2023-08-07T04:01:14;12.30;29.90
20839;DHT22;10580;51.092;6.828;2023-08-07T04:03:40;12.40;31.00
20839;DHT22;10580;51.092;6.828;2023-08-07T04:06:05;12.30;30.90
20839;DHT22;10580;51.092;6.828;2023-08-07T04:08:31;12.30;29.10
20839;DHT22;10580;51.092;6.828;2023-08-07T04:11:00;12.40;30.00
20839;DHT22;10580;51.092;6.828;2023-08-07T04:13:26;12.40;29.40
20839;DHT22;10580;51.092;6.828;2023-08-07T04:15:52;12.40;30.10
20839;DHT22;10580;51.092;6.828;2023-08-07T04:18:18;12.40;27.80
20839;DHT22;10580;51.092;6.828;2023-08-07T04:20:55;12.40;21.00
20839;DHT22;10580;51.092;6.828;2023-08-07T04:23:21;12.40;17.30
20839;DHT22;10580;51.092;6.828;2023-08-07T04:25:47;12.40;17.40
20839;DHT22;10580;51.092;6.828;2023-08-07T04:28:14;12.40;13.40
20839;DHT22;10580;51.092;6.828;2023-08-07T04:30:40;12.40;7.90
20839;DHT22;10580;51.092;6.828;2023-08-07T04:33:06;12.40;7.40
20839;DHT22;10580;51.092;6.828;2023-08-07T04:35:32;12.40;10.70
20839;DHT22;10580;51.092;6.828;2023-08-07T04:37:58;12.40;10.90
20839;DHT22;10580;51.092;6.828;2023-08-07T04:40:23;12.40;15.30
20839;DHT22;10580;51.092;6.828;2023-08-07T04:42:49;12.40;17.30
20839;DHT22;10580;51.092;6.828;2023-08-07T04:45:15;12.40;17.60
20839;DHT22;10580;51.092;6.828;2023-08-07T04:47:40;12.40;20.10
20839;DHT22;10580;51.092;6.828;2023-08-07T04:50:07;12.40;21.30
20839;DHT22;10580;51.092;6.828;2023-08-07T04:52:33;12.40;23.90
20839;DHT22;10580;51.092;6.828;2023-08-07T04:54:59;12.40;22.20
20839;DHT22;10580;51.092;6.828;2023-08-07T04:57:24;12.40;21.80
20839;DHT22;10580;51.092;6.828;2023-08-07T04:59:50;12.40;19.70
20839;DHT22;10580;51.092;6.828;2023-08-07T05:02:16;12.40;19.20
20839;DHT22;10580;51.092;6.828;2023-08-07T05:04:41;12.40;19.70
20839;DHT22;10580;51.092;6.828;2023-08-07T05:07:07;12.40;18.50
20839;DHT22;10580;51.092;6.828;2023-08-07T05:09:33;12.40;21.90
20839;DHT22;10580;51.092;6.828;2023-08-07T05:11:58;12.40;22.30
20839;DHT22;10580;51.092;6.828;2023-08-07T05:14:24;12.50;26.60
20839;DHT22;10580;51.092;6.828;2023-08-07T05:16:49;12.40;24.70
20839;DHT22;10580;51.092;6.828;2023-08-07T05:19:15;12.50;20.90
20839;DHT22;10580;51.092;6.828;2023-08-07T05:21:40;12.40;16.90
20839;DHT22;10580;51.092;6.828;2023-08-07T05:24:06;12.40;12.30
20839;DHT22;10580;51.092;6.828;2023-08-07T05:26:31;12.40;9.30
20839;DHT22;10580;51.092;6.828;2023-08-07T05:28:57;12.50;3.20
20839;DHT22;10580;51.092;6.828;2023-08-07T05:31:24;12.40;1.00
20839;DHT22;10580;51.092;6.828;2023-08-07T05:33:50;12.50;1.00
20839;DHT22;10580;51.092;6.828;2023-08-07T05:36:16;12.50;1.00
20839;DHT22;10580;51.092;6.828;2023-08-07T05:38:41;12.60;1.00
20839;DHT22;10580;51.092;6.828;2023-08-07T05:41:08;12.60;1.00
20839;DHT22;10580;51.092;6.828;2023-08-07T05:43:34;12.60;1.00
20839;DHT22;10580;51.092;6.828;2023-08-07T05:45:59;12.60;1.00
20839;DHT22;10580;51.092;6.828;2023-08-07T05:48:25;12.60;1.00
20839;DHT22;10580;51.092;6.828;2023-08-07T05:50:52;12.60;1.00
20839;DHT22;10580;51.092;6.828;2023-08-07T05:53:18;12.60;1.00
20839;DHT22;10580;51.092;6.828;2023-08-07T05:55:44;12.60;1.00
20839;DHT22;10580;51.092;6.828;2023-08-07T05:58:10;12.60;1.00
20839;DHT22;10580;51.092;6.828;2023-08-07T06:00:35;12.60;1.00
20839;DHT22;10580;51.092;6.828;2023-08-07T06:03:01;12.60;1.00
20839;DHT22;10580;51.092;6.828;2023-08-07T06:05:26;12.60;1.00
20839;DHT22;10580;51.092;6.828;2023-08-07T06:07:58;12.60;1.00
20839;DHT22;10580;51.092;6.828;2023-08-07T06:10:24;12.60;1.00
20839;DHT22;10580;51.092;6.828;2023-08-07T06:12:49;12.60;1.00
20839;DHT22;10580;51.092;6.828;2023-08-07T06:15:15;12.60;1.00
20839;DHT22;10580;51.092;6.828;2023-08-07T06:17:41;12.60;1.00
20839;DHT22;10580;51.092;6.828;2023-08-07T06:20:08;12.60;1.00
20839;DHT22;10580;51.092;6.828;2023-08-07T06:22:35;12.50;1.00
20839;DHT22;10580;51.092;6.828;2023-08-07T06:25:01;12.50;1.00
20839;DHT22;10580;51.092;6.828;2023-08-07T06:27:26;12.50;1.00
20839;DHT22;10580;51.092;6.828;2023-08-07T06:29:52;12.50;1.00
20839;DHT22;10580;51.092;6.828;2023-08-07T06:32:18;12.50;1.00
20839;DHT22;10580;51.092;6.828;2023-08-07T06:34:46;12.50;1.00
20839;DHT22;10580;51.092;6.828;2023-08-07T06:37:12;12.50;1.00
20839;DHT22;10580;51.092;6.828;2023-08-07T06:39:37;12.50;1.00
20839;DHT22;10580;51.092;6.828;2023-08-07T06:42:03;12.40;1.00
20839;DHT22;10580;51.092;6.828;2023-08-07T06:44:29;12.40;1.00
20839;DHT22;10580;51.092;6.828;2023-08-07T06:46:55;12.50;1.00
20839;DHT22;10580;51.092;6.828;2023-08-07T06:49:20;12.50;1.00
20839;DHT22;10580;51.092;6.828;2023-08-07T06:51:49;12.50;2.50
20839;DHT22;10580;51.092;6.828;2023-08-07T06:54:14;12.40;1.00
20839;DHT22;10580;51.092;6.828;2023-08-07T06:56:40;12.50;7.00
20839;DHT22;10580;51.092;6.828;2023-08-07T06:59:07;12.50;12.50
20839;DHT22;10580;51.092;6.828;2023-08-07T07:01:33;12.40;18.80
20839;DHT22;10580;51.092;6.828;2023-08-07T07:03:58;12.40;22.20
20839;DHT22;10580;51.092;6.828;2023-08-07T07:06:24;12.40;23.30
20839;DHT22;10580;51.092;6.828;2023-08-07T07:08:51;12.40;22.00
20839;DHT22;10580;51.092;6.828;2023-08-07T07:11:22;12.40;24.40
20839;DHT22;10580;51.092;6.828;2023-08-07T07:13:50;12.40;26.90
20839;DHT22;10580;51.092;6.828;2023-08-07T07:16:19;12.40;27.30
20839;DHT22;10580;51.092;6.828;2023-08-07T07:18:48;12.50;30.30
20839;DHT22;10580;51.092;6.828;2023-08-07T07:21:14;12.40;31.40
20839;DHT22;10580;51.092;6.828;2023-08-07T07:23:39;12.50;32.80
20839;DHT22;10580;51.092;6.828;2023-08-07T07:26:05;12.50;32.80
20839;DHT22;10580;51.092;6.828;2023-08-07T07:28:30;12.50;31.40
20839;DHT22;10580;51.092;6.828;2023-08-07T07:30:56;12.50;31.40
20839;DHT22;10580;51.092;6.828;2023-08-07T07:33:21;12.60;30.10
20839;DHT22;10580;51.092;6.828;2023-08-07T07:35:47;12.50;27.30
20839;DHT22;10580;51.092;6.828;2023-08-07T07:41:50;12.60;28.60
20839;DHT22;10580;51.092;6.828;2023-08-07T07:44:15;12.60;32.30
20839;DHT22;10580;51.092;6.828;2023-08-07T07:46:41;12.70;30.20
20839;DHT22;10580;51.092;6.828;2023-08-07T07:49:06;12.70;26.00
20839;DHT22;10580;51.092;6.828;2023-08-07T07:51:32;12.80;26.40
20839;DHT22;10580;51.092;6.828;2023-08-07T07:53:58;12.80;15.70
20839;DHT22;10580;51.092;6.828;2023-08-07T07:56:24;12.90;6.80
20839;DHT22;10580;51.092;6.828;2023-08-07T07:58:49;12.90;1.00
20839;DHT22;10580;51.092;6.828;2023-08-07T08:01:15;12.90;1.00
20839;DHT22;10580;51.092;6.828;2023-08-07T08:03:41;12.80;1.00
20839;DHT22;10580;51.092;6.828;2023-08-07T08:06:10;12.90;1.00
20839;DHT22;10580;51.092;6.828;2023-08-07T08:08:36;12.90;1.00
20839;DHT22;10580;51.092;6.828;2023-08-07T08:11:01;12.90;5.40
20839;DHT22;10580;51.092;6.828;2023-08-07T08:13:27;12.90;2.20
20839;DHT22;10580;51.092;6.828;2023-08-07T08:15:52;12.90;1.00
20839;DHT22;10580;51.092;6.828;2023-08-07T08:18:18;13.00;1.00
20839;DHT22;10580;51.092;6.828;2023-08-07T08:20:44;13.00;1.00
20839;DHT22;10580;51.092;6.828;2023-08-07T08:23:09;13.10;1.00
20839;DHT22;10580;51.092;6.828;2023-08-07T08:25:35;13.10;1.00
20839;DHT22;10580;51.092;6.828;2023-08-07T08:28:00;13.20;1.00
20839;DHT22;10580;51.092;6.828;2023-08-07T08:30:27;13.20;1.00
20839;DHT22;10580;51.092;6.828;2023-08-07T08:32:53;13.30;1.00
20839;DHT22;10580;51.092;6.828;2023-08-07T08:35:19;13.30;1.00
20839;DHT22;10580;51.092;6.828;2023-08-07T08:37:44;13.40;1.00
20839;DHT22;10580;51.092;6.828;2023-08-07T08:40:10;13.40;1.00
20839;DHT22;10580;51.092;6.828;2023-08-07T08:42:39;13.50;1.00
20839;DHT22;10580;51.092;6.828;2023-08-07T08:45:08;13.60;1.00
20839;DHT22;10580;51.092;6.828;2023-08-07T08:47:36;13.70;1.00
20839;DHT22;10580;51.092;6.828;2023-08-07T08:50:06;13.70;1.00
20839;DHT22;10580;51.092;6.828;2023-08-07T08:52:32;13.80;1.00
20839;DHT22;10580;51.092;6.828;2023-08-07T08:54:59;13.80;1.00
20839;DHT22;10580;51.092;6.828;2023-08-07T08:57:25;13.80;1.00
20839;DHT22;10580;51.092;6.828;2023-08-07T08:59:52;13.90;1.00
20839;DHT22;10580;51.092;6.828;2023-08-07T09:02:18;13.90;1.00
20839;DHT22;10580;51.092;6.828;2023-08-07T09:04:46;13.90;1.00
20839;DHT22;10580;51.092;6.828;2023-08-07T09:07:15;13.90;1.00
20839;DHT22;10580;51.092;6.828;2023-08-07T09:09:42;13.90;1.00
20839;DHT22;10580;51.092;6.828;2023-08-07T09:12:25;13.90;1.00
20839;DHT22;10580;51.092;6.828;2023-08-07T09:14:56;13.80;1.00
20839;DHT22;10580;51.092;6.828;2023-08-07T09:17:24;13.80;1.00
20839;DHT22;10580;51.092;6.828;2023-08-07T09:19:52;13.80;1.00
20839;DHT22;10580;51.092;6.828;2023-08-07T09:22:19;13.80;1.00
20839;DHT22;10580;51.092;6.828;2023-08-07T09:24:45;13.90;1.00
20839;DHT22;10580;51.092;6.828;2023-08-07T09:27:11;14.00;1.00
20839;DHT22;10580;51.092;6.828;2023-08-07T09:29:39;14.10;1.00
20839;DHT22;10580;51.092;6.828;2023-08-07T09:32:11;14.40;1.00
20839;DHT22;10580;51.092;6.828;2023-08-07T09:34:42;14.80;1.00
20839;DHT22;10580;51.092;6.828;2023-08-07T09:37:08;15.40;1.00
20839;DHT22;10580;51.092;6.828;2023-08-07T09:39:35;15.50;1.00
20839;DHT22;10580;51.092;6.828;2023-08-07T09:42:01;15.60;1.00
20839;DHT22;10580;51.092;6.828;2023-08-07T09:44:38;15.20;99.90
20839;DHT22;10580;51.092;6.828;2023-08-07T09:47:17;15.10;99.90
20839;DHT22;10580;51.092;6.828;2023-08-07T09:49:44;15.10;1.00
20839;DHT22;10580;51.092;6.828;2023-08-07T09:52:14;15.40;1.00
20839;DHT22;10580;51.092;6.828;2023-08-07T09:54:40;15.60;1.00
20839;DHT22;10580;51.092;6.828;2023-08-07T09:57:06;15.90;1.00
20839;DHT22;10580;51.092;6.828;2023-08-07T09:59:33;15.90;1.00
20839;DHT22;10580;51.092;6.828;2023-08-07T10:02:00;16.20;1.00
20839;DHT22;10580;51.092;6.828;2023-08-07T10:04:29;16.40;99.90
20839;DHT22;10580;51.092;6.828;2023-08-07T10:06:56;16.50;99.90
20839;DHT22;10580;51.092;6.828;2023-08-07T10:09:22;16.70;1.00
20839;DHT22;10580;51.092;6.828;2023-08-07T10:11:49;16.90;1.00
20839;DHT22;10580;51.092;6.828;2023-08-07T10:14:15;17.00;99.90
20839;DHT22;10580;51.092;6.828;2023-08-07T10:16:41;17.20;1.00
20839;DHT22;10580;51.092;6.828;2023-08-07T10:19:10;17.40;1.00
20839;DHT22;10580;51.092;6.828;2023-08-07T10:21:36;17.60;99.90
20839;DHT22;10580;51.092;6.828;2023-08-07T10:24:05;18.10;99.90
20839;DHT22;10580;51.092;6.828;2023-08-07T10:26:37;18.30;1.00
20839;DHT22;10580;51.092;6.828;2023-08-07T10:29:07;18.20;99.90
20839;DHT22;10580;51.092;6.828;2023-08-07T10:31:35;18.30;1.00
20839;DHT22;10580;51.092;6.828;2023-08-07T10:34:01;18.70;1.00
20839;DHT22;10580;51.092;6.828;2023-08-07T10:36:34;18.70;99.90
20839;DHT22;10580;51.092;6.828;2023-08-07T10:39:11;18.70;99.90
20839;DHT22;10580;51.092;6.828;2023-08-07T10:41:45;19.00;1.00
20839;DHT22;10580;51.092;6.828;2023-08-07T10:44:24;19.40;99.90
20839;DHT22;10580;51.092;6.828;2023-08-07T10:46:55;19.70;5.60
20839;DHT22;10580;51.092;6.828;2023-08-07T10:49:41;19.60;1.00
20839;DHT22;10580;51.092;6.828;2023-08-07T10:52:12;19.90;1.00
20839;DHT22;10580;51.092;6.828;2023-08-07T10:54:49;19.80;1.00
20839;DHT22;10580;51.092;6.828;2023-08-07T10:57:17;19.60;1.00
20839;DHT22;10580;51.092;6.828;2023-08-07T10:59:48;18.90;1.00
20839;DHT22;10580;51.092;6.828;2023-08-07T11:02:25;18.60;1.00
20839;DHT22;10580;51.092;6.828;2023-08-07T11:04:52;18.50;1.00
20839;DHT22;10580;51.092;6.828;2023-08-07T11:07:28;19.00;1.00
20839;DHT22;10580;51.092;6.828;2023-08-07T11:09:55;19.80;99.90
20839;DHT22;10580;51.092;6.828;2023-08-07T11:12:23;20.00;1.00
20839;DHT22;10580;51.092;6.828;2023-08-07T11:14:49;20.10;1.00
20839;DHT22;10580;51.092;6.828;2023-08-07T11:17:16;20.70;1.00
20839;DHT22;10580;51.092;6.828;2023-08-07T11:19:42;20.40;1.00
20839;DHT22;10580;51.092;6.828;2023-08-07T11:22:08;20.50;1.00
20839;DHT22;10580;51.092;6.828;2023-08-07T11:24:34;20.40;1.00
20839;DHT22;10580;51.092;6.828;2023-08-07T11:26:59;20.70;1.00
20839;DHT22;10580;51.092;6.828;2023-08-07T11:29:25;20.40;1.00
20839;DHT22;10580;51.092;6.828;2023-08-07T11:31:51;20.40;1.00
20839;DHT22;10580;51.092;6.828;2023-08-07T11:34:20;20.40;1.00
20839;DHT22;10580;51.092;6.828;2023-08-07T11:36:46;20.50;1.00
20839;DHT22;10580;51.092;6.828;2023-08-07T11:39:14;20.60;1.00
20839;DHT22;10580;51.092;6.828;2023-08-07T11:41:40;20.90;1.00
20839;DHT22;10580;51.092;6.828;2023-08-07T11:44:08;21.10;1.00
20839;DHT22;10580;51.092;6.828;2023-08-07T11:46:33;20.80;1.00
20839;DHT22;10580;51.092;6.828;2023-08-07T11:48:59;21.30;1.00
20839;DHT22;10580;51.092;6.828;2023-08-07T11:51:25;21.60;1.00
20839;DHT22;10580;51.092;6.828;2023-08-07T11:53:51;21.70;1.00
20839;DHT22;10580;51.092;6.828;2023-08-07T11:56:22;21.80;1.00
20839;DHT22;10580;51.092;6.828;2023-08-07T11:58:48;21.80;1.00
20839;DHT22;10580;51.092;6.828;2023-08-07T12:01:16;21.30;1.00
20839;DHT22;10580;51.092;6.828;2023-08-07T12:03:50;21.20;1.00
20839;DHT22;10580;51.092;6.828;2023-08-07T12:06:16;20.90;1.00
20839;DHT22;10580;51.092;6.828;2023-08-07T12:08:42;20.90;1.00
20839;DHT22;10580;51.092;6.828;2023-08-07T12:11:12;20.80;1.00
20839;DHT22;10580;51.092;6.828;2023-08-07T12:13:42;21.10;99.90
20839;DHT22;10580;51.092;6.828;2023-08-07T12:16:08;21.40;99.90
20839;DHT22;10580;51.092;6.828;2023-08-07T12:18:35;21.40;99.90
20839;DHT22;10580;51.092;6.828;2023-08-07T12:21:06;20.90;99.90
20839;DHT22;10580;51.092;6.828;2023-08-07T12:23:36;21.20;99.90
20839;DHT22;10580;51.092;6.828;2023-08-07T12:26:03;21.00;99.90
20839;DHT22;10580;51.092;6.828;2023-08-07T12:28:29;21.50;99.90
20839;DHT22;10580;51.092;6.828;2023-08-07T12:30:56;21.80;99.90
20839;DHT22;10580;51.092;6.828;2023-08-07T12:33:21;22.10;99.90
20839;DHT22;10580;51.092;6.828;2023-08-07T12:35:47;22.20;99.90
20839;DHT22;10580;51.092;6.828;2023-08-07T12:38:12;22.30;99.90
20839;DHT22;10580;51.092;6.828;2023-08-07T12:40:41;22.30;99.90
20839;DHT22;10580;51.092;6.828;2023-08-07T12:43:07;22.50;99.90
20839;DHT22;10580;51.092;6.828;2023-08-07T12:45:33;22.60;99.90
20839;DHT22;10580;51.092;6.828;2023-08-07T12:47:59;22.50;99.90
20839;DHT22;10580;51.092;6.828;2023-08-07T12:50:25;22.40;99.90
20839;DHT22;10580;51.092;6.828;2023-08-07T12:52:51;21.70;99.90
20839;DHT22;10580;51.092;6.828;2023-08-07T12:55:17;21.60;99.90
20839;DHT22;10580;51.092;6.828;2023-08-07T12:57:43;21.60;99.90
20839;DHT22;10580;51.092;6.828;2023-08-07T13:00:10;21.80;99.90
20839;DHT22;10580;51.092;6.828;2023-08-07T13:02:40;21.80;99.90
20839;DHT22;10580;51.092;6.828;2023-08-07T13:05:05;22.00;99.90
20839;DHT22;10580;51.092;6.828;2023-08-07T13:07:31;22.40;99.90
20839;DHT22;10580;51.092;6.828;2023-08-07T13:09:57;22.50;99.90
20839;DHT22;10580;51.092;6.828;2023-08-07T13:12:22;22.40;99.90
20839;DHT22;10580;51.092;6.828;2023-08-07T13:14:48;22.50;99.90
20839;DHT22;10580;51.092;6.828;2023-08-07T13:17:14;22.50;99.90
20839;DHT22;10580;51.092;6.828;2023-08-07T13:19:39;22.50;99.90
20839;DHT22;10580;51.092;6.828;2023-08-07T13:22:05;22.50;99.90
20839;DHT22;10580;51.092;6.828;2023-08-07T13:24:31;22.60;99.90
20839;DHT22;10580;51.092;6.828;2023-08-07T13:26:56;22.60;99.90
20839;DHT22;10580;51.092;6.828;2023-08-07T13:29:22;22.40;99.90
20839;DHT22;10580;51.092;6.828;2023-08-07T13:31:48;22.30;99.90
20839;DHT22;10580;51.092;6.828;2023-08-07T13:34:13;22.30;99.90
20839;DHT22;10580;51.092;6.828;2023-08-07T13:36:39;22.10;99.90
20839;DHT22;10580;51.092;6.828;2023-08-07T13:39:05;21.30;99.90
20839;DHT22;10580;51.092;6.828;2023-08-07T13:41:31;20.70;99.90
20839;DHT22;10580;51.092;6.828;2023-08-07T13:44:00;20.70;99.90
20839;DHT22;10580;51.092;6.828;2023-08-07T13:46:26;21.00;99.90
20839;DHT22;10580;51.092;6.828;2023-08-07T13:48:52;20.70;99.90
20839;DHT22;10580;51.092;6.828;2023-08-07T13:51:17;20.40;99.90
20839;DHT22;10580;51.092;6.828;2023-08-07T13:53:43;20.20;99.90
20839;DHT22;10580;51.092;6.828;2023-08-07T13:56:09;20.10;99.90
20839;DHT22;10580;51.092;6.828;2023-08-07T13:58:41;20.30;99.90
20839;DHT22;10580;51.092;6.828;2023-08-07T14:01:06;20.00;99.90
20839;DHT22;10580;51.092;6.828;2023-08-07T14:03:33;19.80;99.90
20839;DHT22;10580;51.092;6.828;2023-08-07T14:06:00;19.60;99.90
20839;DHT22;10580;51.092;6.828;2023-08-07T14:08:25;19.50;99.90
20839;DHT22;10580;51.092;6.828;2023-08-07T14:10:51;19.50;99.90
20839;DHT22;10580;51.092;6.828;2023-08-07T14:13:17;19.50;99.90
20839;DHT22;10580;51.092;6.828;2023-08-07T14:15:42;19.40;99.90
20839;DHT22;10580;51.092;6.828;2023-08-07T14:18:08;19.50;99.90
20839;DHT22;10580;51.092;6.828;2023-08-07T14:20:35;19.60;99.90
20839;DHT22;10580;51.092;6.828;2023-08-07T14:23:00;19.90;99.90
20839;DHT22;10580;51.092;6.828;2023-08-07T14:25:26;20.40;99.90
20839;DHT22;10580;51.092;6.828;2023-08-07T14:27:51;20.60;99.90
20839;DHT22;10580;51.092;6.828;2023-08-07T14:30:17;20.70;99.90
20839;DHT22;10580;51.092;6.828;2023-08-07T14:32:43;20.80;99.90
20839;DHT22;10580;51.092;6.828;2023-08-07T14:35:08;21.00;99.90
20839;DHT22;10580;51.092;6.828;2023-08-07T14:37:34;21.20;99.90
20839;DHT22;10580;51.092;6.828;2023-08-07T14:40:01;21.20;99.90
20839;DHT22;10580;51.092;6.828;2023-08-07T14:42:27;20.90;99.90
20839;DHT22;10580;51.092;6.828;2023-08-07T14:44:52;20.80;99.90
20839;DHT22;10580;51.092;6.828;2023-08-07T14:47:18;20.40;99.90
20839;DHT22;10580;51.092;6.828;2023-08-07T14:49:44;20.30;99.90
20839;DHT22;10580;51.092;6.828;2023-08-07T14:52:09;19.90;99.90
20839;DHT22;10580;51.092;6.828;2023-08-07T14:54:35;19.70;99.90
20839;DHT22;10580;51.092;6.828;2023-08-07T14:57:00;19.50;99.90
20839;DHT22;10580;51.092;6.828;2023-08-07T14:59:26;19.40;99.90
20839;DHT22;10580;51.092;6.828;2023-08-07T15:01:52;19.20;99.90
20839;DHT22;10580;51.092;6.828;2023-08-07T15:04:17;19.20;99.90
20839;DHT22;10580;51.092;6.828;2023-08-07T15:06:43;19.10;99.90
20839;DHT22;10580;51.092;6.828;2023-08-07T15:09:12;19.30;99.90
20839;DHT22;10580;51.092;6.828;2023-08-07T15:11:37;19.70;99.90
20839;DHT22;10580;51.092;6.828;2023-08-07T15:14:03;19.70;99.90
20839;DHT22;10580;51.092;6.828;2023-08-07T15:16:30;19.50;99.90
20839;DHT22;10580;51.092;6.828;2023-08-07T15:18:55;19.30;99.90
20839;DHT22;10580;51.092;6.828;2023-08-07T15:21:21;19.10;99.90
20839;DHT22;10580;51.092;6.828;2023-08-07T15:23:46;19.00;99.90
20839;DHT22;10580;51.092;6.828;2023-08-07T15:26:12;19.00;99.90
20839;DHT22;10580;51.092;6.828;2023-08-07T15:28:38;19.00;99.90
20839;DHT22;10580;51.092;6.828;2023-08-07T15:31:03;19.00;99.90
20839;DHT22;10580;51.092;6.828;2023-08-07T15:33:29;19.10;99.90
20839;DHT22;10580;51.092;6.828;2023-08-07T15:35:54;19.20;99.90
20839;DHT22;10580;51.092;6.828;2023-08-07T15:38:20;19.60;99.90
20839;DHT22;10580;51.092;6.828;2023-08-07T15:40:46;19.90;99.90
20839;DHT22;10580;51.092;6.828;2023-08-07T15:43:11;20.20;99.90
20839;DHT22;10580;51.092;6.828;2023-08-07T15:45:37;20.30;99.90